createdAt,value
2019-04-01T00:01:51.332Z,27.43
2019-04-01T00:04:22.150Z,28.47
2019-04-01T00:06:52.910Z,28.03
2019-04-01T00:09:24.070Z,28.33
2019-04-01T00:11:56.700Z,27.97
2019-04-01T00:14:27.749Z,28.13
2019-04-01T00:16:58.518Z,27.57
2019-04-01T00:19:29.469Z,26.73
2019-04-01T00:22:00.227Z,27.77
2019-04-01T00:24:30.995Z,27.43
2019-04-01T00:27:01.731Z,27.37
2019-04-01T00:29:32.701Z,27.50
2019-04-01T00:32:04.010Z,27.13
2019-04-01T00:34:34.718Z,27.40
2019-04-01T00:37:05.941Z,27.77
2019-04-01T00:39:36.913Z,25.40
2019-04-01T00:42:16.122Z,27.57
2019-04-01T00:44:46.880Z,28.07
2019-04-01T00:47:17.893Z,26.77
2019-04-01T00:49:49.094Z,25.27
2019-04-01T00:52:20.093Z,25.77
2019-04-01T00:54:51.322Z,25.20
2019-04-01T00:57:22.313Z,25.20
2019-04-01T00:59:53.065Z,26.03
2019-04-01T01:02:24.140Z,25.43
2019-04-01T01:04:54.972Z,25.60
2019-04-01T01:07:25.740Z,25.87
2019-04-01T01:09:56.567Z,25.53
2019-04-01T01:12:27.340Z,24.87
2019-04-01T01:14:58.335Z,25.30
2019-04-01T01:17:29.187Z,25.20
2019-04-01T01:20:00.347Z,25.57
2019-04-01T01:22:31.107Z,24.87
2019-04-01T01:25:02.102Z,25.10
2019-04-01T01:27:32.879Z,24.83
2019-04-01T01:30:05.120Z,24.73
2019-04-01T01:32:36.123Z,25.10
2019-04-01T01:35:06.988Z,25.30
2019-04-01T01:37:38.503Z,25.30
2019-04-01T01:40:09.340Z,25.03
2019-04-01T01:42:40.361Z,26.20
2019-04-01T01:45:11.266Z,24.30
2019-04-01T01:47:42.359Z,24.60
2019-04-01T01:50:13.197Z,25.50
2019-04-01T01:52:44.048Z,23.33
2019-04-01T01:55:15.387Z,23.33
2019-04-01T01:57:46.465Z,23.90
2019-04-01T02:00:17.646Z,23.83
2019-04-01T02:02:48.942Z,24.63
2019-04-01T02:05:20.203Z,24.37
2019-04-01T02:07:50.970Z,25.23
2019-04-01T02:10:21.955Z,24.20
2019-04-01T02:12:52.976Z,24.50
2019-04-01T02:15:23.987Z,25.07
2019-04-01T02:17:55.534Z,23.50
2019-04-01T02:20:26.422Z,23.67
2019-04-01T02:22:57.466Z,22.43
2019-04-01T02:25:28.214Z,22.50
2019-04-01T02:27:59.310Z,23.53
2019-04-01T02:30:30.313Z,22.70
2019-04-01T02:33:01.879Z,22.97
2019-04-01T02:35:32.703Z,23.43
2019-04-01T02:38:04.102Z,22.67
2019-04-01T02:40:36.319Z,22.80
2019-04-01T02:43:07.325Z,22.80
2019-04-01T02:45:38.348Z,22.73
2019-04-01T02:48:09.679Z,22.93
2019-04-01T02:50:40.950Z,22.47
2019-04-01T02:53:11.986Z,22.50
2019-04-01T03:00:27.801Z,22.57
2019-04-01T03:02:58.577Z,23.27
2019-04-01T03:05:29.805Z,22.03
2019-04-01T03:08:00.808Z,21.63
2019-04-01T03:10:31.865Z,21.20
2019-04-01T03:13:02.940Z,21.57
2019-04-01T03:15:33.886Z,21.67
2019-04-01T03:18:04.964Z,23.03
2019-04-01T03:20:35.780Z,22.33
2019-04-01T03:23:06.947Z,23.07
2019-04-01T03:25:38.358Z,22.47
2019-04-01T03:28:09.288Z,23.70
2019-04-01T03:30:41.340Z,22.80
2019-04-01T03:33:12.142Z,23.23
2019-04-01T03:35:43.376Z,23.00
2019-04-01T03:38:14.375Z,23.77
2019-04-01T03:40:45.386Z,23.27
2019-04-01T03:43:16.327Z,23.20
2019-04-01T03:45:47.291Z,24.37
2019-04-01T03:48:18.063Z,23.40
2019-04-01T03:50:49.114Z,23.77
2019-04-01T03:53:20.275Z,23.27
2019-04-01T03:55:51.031Z,23.90
2019-04-01T03:58:22.047Z,25.70
2019-04-01T04:00:53.418Z,25.17
2019-04-01T04:03:24.196Z,23.57
2019-04-01T04:05:55.202Z,23.17
2019-04-01T04:08:26.236Z,23.93
2019-04-01T04:10:57.528Z,24.73
2019-04-01T04:13:28.559Z,24.30
2019-04-01T04:15:59.613Z,26.10
2019-04-01T04:18:30.617Z,26.20
2019-04-01T04:21:01.383Z,25.63
2019-04-01T04:23:32.170Z,24.33
2019-04-01T04:26:03.159Z,23.67
2019-04-01T04:28:53.907Z,24.97
2019-04-01T04:31:25.036Z,24.33
2019-04-01T04:33:56.384Z,25.93
2019-04-01T04:36:27.388Z,27.17
2019-04-01T04:38:58.656Z,25.00
2019-04-01T04:41:30.619Z,25.37
2019-04-01T04:44:01.689Z,26.77
2019-04-01T04:46:32.680Z,25.43
2019-04-01T04:49:03.485Z,25.60
2019-04-01T04:51:34.231Z,27.13
2019-04-01T04:54:05.334Z,26.17
2019-04-01T04:56:36.312Z,24.87
2019-04-01T04:59:07.084Z,26.13
2019-04-01T05:01:37.851Z,26.67
2019-04-01T05:04:08.841Z,25.87
2019-04-01T05:06:39.989Z,26.40
2019-04-01T05:09:11.244Z,26.50
2019-04-01T05:11:42.019Z,25.80
2019-04-01T05:14:13.019Z,27.27
2019-04-01T05:16:43.792Z,28.20
2019-04-01T05:19:15.298Z,26.33
2019-04-01T05:21:46.960Z,25.63
2019-04-01T05:24:18.136Z,26.73
2019-04-01T05:26:49.387Z,26.47
2019-04-01T05:29:22.171Z,26.03
2019-04-01T05:31:55.159Z,26.63
2019-04-01T05:34:26.512Z,26.17
2019-04-01T05:36:57.854Z,26.57
2019-04-01T05:39:29.651Z,26.63
2019-04-01T05:42:01.168Z,26.17
2019-04-01T05:44:32.415Z,25.23
2019-04-01T05:47:03.187Z,26.13
2019-04-01T05:49:34.184Z,26.50
2019-04-01T05:52:05.095Z,25.70
2019-04-01T05:54:36.178Z,25.33
2019-04-01T05:57:07.241Z,25.30
2019-04-01T05:59:37.997Z,24.43
2019-04-01T06:02:08.852Z,26.67
2019-04-01T06:04:39.682Z,26.60
2019-04-01T06:07:10.575Z,26.37
2019-04-01T06:09:41.434Z,24.93
2019-04-01T06:12:12.508Z,26.10
2019-04-01T06:14:43.501Z,26.70
2019-04-01T06:17:14.349Z,26.10
2019-04-01T06:19:45.495Z,26.70
2019-04-01T06:22:16.439Z,25.53
2019-04-01T06:24:47.383Z,24.80
2019-04-01T06:27:18.450Z,25.57
2019-04-01T06:29:49.517Z,26.30
2019-04-01T06:32:20.303Z,26.07
2019-04-01T06:34:53.106Z,25.10
2019-04-01T06:37:24.176Z,24.30
2019-04-01T06:39:55.512Z,25.57
2019-04-01T06:42:26.422Z,24.77
2019-04-01T06:44:57.255Z,24.30
2019-04-01T06:47:28.111Z,24.40
2019-04-01T06:49:58.936Z,22.90
2019-04-01T06:52:30.109Z,23.90
2019-04-01T06:55:01.100Z,23.27
2019-04-01T06:57:32.389Z,22.37
2019-04-01T07:00:03.244Z,21.17
2019-04-01T07:02:34.803Z,20.90
2019-04-01T07:05:05.863Z,21.57
2019-04-01T07:07:36.714Z,21.07
2019-04-01T07:10:07.646Z,22.00
2019-04-01T07:12:38.964Z,21.33
2019-04-01T07:15:10.303Z,22.67
2019-04-01T07:17:41.161Z,20.90
2019-04-01T07:20:12.006Z,21.90
2019-04-01T07:22:43.098Z,21.97
2019-04-01T07:25:14.209Z,21.00
2019-04-01T07:27:45.053Z,22.07
2019-04-01T07:30:16.443Z,22.27
2019-04-01T07:32:47.448Z,20.83
2019-04-01T07:35:18.203Z,20.30
2019-04-01T07:37:49.058Z,20.03
2019-04-01T07:40:19.887Z,21.27
2019-04-01T07:42:50.990Z,19.90
2019-04-01T07:45:22.293Z,20.67
2019-04-01T07:47:53.909Z,20.67
2019-04-01T07:50:24.748Z,20.27
2019-04-01T07:52:55.768Z,20.10
2019-04-01T07:55:26.718Z,19.43
2019-04-01T07:57:59.729Z,19.67
2019-04-01T08:00:29.966Z,19.93
2019-04-01T08:03:00.825Z,18.27
2019-04-01T08:05:31.593Z,18.57
2019-04-01T08:08:02.563Z,19.17
2019-04-01T08:10:33.606Z,18.63
2019-04-01T08:13:04.698Z,18.83
2019-04-01T08:15:35.877Z,18.90
2019-04-01T08:18:06.725Z,19.60
2019-04-01T08:20:37.863Z,19.50
2019-04-01T08:23:09.901Z,18.03
2019-04-01T08:25:40.980Z,19.40
2019-04-01T08:28:11.833Z,18.80
2019-04-01T08:30:42.805Z,19.17
2019-04-01T08:33:13.658Z,20.20
2019-04-01T08:35:44.735Z,18.57
2019-04-01T08:38:15.815Z,18.73
2019-04-01T08:40:46.584Z,18.20
2019-04-01T08:43:17.450Z,19.33
2019-04-01T08:45:48.538Z,19.50
2019-04-01T08:48:19.653Z,19.33
2019-04-01T08:50:50.499Z,18.37
2019-04-01T08:53:21.563Z,19.50
2019-04-01T08:56:00.353Z,18.77
2019-04-01T08:58:25.195Z,17.63
2019-04-01T09:00:56.353Z,18.67
2019-04-01T09:03:27.809Z,19.20
2019-04-01T09:05:58.958Z,19.30
2019-04-01T09:08:30.404Z,18.93
2019-04-01T09:11:01.451Z,18.53
2019-04-01T09:13:32.531Z,18.90
2019-04-01T09:16:04.177Z,18.37
2019-04-01T09:18:34.964Z,19.10
2019-04-01T09:21:05.818Z,18.47
2019-04-01T09:23:36.621Z,18.17
2019-04-01T09:26:07.519Z,18.53
2019-04-01T09:28:38.615Z,18.63
2019-04-01T09:31:09.390Z,19.37
2019-04-01T09:33:40.515Z,17.53
2019-04-01T09:36:11.638Z,17.40
2019-04-01T09:38:42.455Z,17.90
2019-04-01T09:41:13.773Z,17.50
2019-04-01T09:43:45.171Z,18.47
2019-04-01T09:46:15.983Z,18.40
2019-04-01T09:48:47.075Z,17.93
2019-04-01T09:51:17.855Z,18.60
2019-04-01T09:53:48.644Z,18.60
2019-04-01T09:56:19.734Z,18.03
2019-04-01T09:58:50.908Z,17.53
2019-04-01T10:01:21.969Z,18.87
2019-04-01T10:03:52.827Z,17.83
2019-04-01T10:06:23.664Z,17.60
2019-04-01T10:08:54.676Z,18.40
2019-04-01T10:11:25.940Z,18.33
2019-04-01T10:13:57.768Z,17.87
2019-04-01T10:16:28.832Z,17.63
2019-04-01T10:18:59.855Z,16.90
2019-04-01T10:21:31.887Z,17.47
2019-04-01T10:24:02.964Z,17.23
2019-04-01T10:26:33.971Z,16.70
2019-04-01T10:29:04.924Z,17.00
2019-04-01T10:31:35.945Z,18.07
2019-04-01T10:34:07.019Z,17.50
2019-04-01T10:36:38.758Z,16.63
2019-04-01T10:39:09.912Z,17.07
2019-04-01T10:41:40.750Z,17.90
2019-04-01T10:44:11.841Z,16.63
2019-04-01T10:46:42.680Z,17.77
2019-04-01T10:49:13.420Z,16.70
2019-04-01T10:51:44.317Z,17.23
2019-04-01T10:54:15.332Z,17.07
2019-04-01T10:56:46.457Z,16.17
2019-04-01T10:59:17.606Z,16.40
2019-04-01T11:01:49.371Z,16.37
2019-04-01T11:04:20.227Z,17.17
2019-04-01T11:06:51.402Z,17.20
2019-04-01T11:09:37.397Z,16.80
2019-04-01T11:11:55.823Z,15.20
2019-04-01T11:14:26.793Z,16.20
2019-04-01T11:16:57.901Z,16.80
2019-04-01T11:19:28.869Z,15.93
2019-04-01T11:21:59.932Z,16.07
2019-04-01T11:24:30.789Z,16.03
2019-04-01T11:27:01.559Z,15.33
2019-04-01T11:29:32.595Z,15.07
2019-04-01T11:38:18.129Z,13.97
2019-04-01T11:44:06.483Z,15.93
2019-04-01T11:46:37.476Z,15.10
2019-04-01T11:49:08.519Z,15.90
2019-04-01T11:51:40.455Z,16.37
2019-04-01T11:54:11.572Z,15.93
2019-04-01T11:56:42.403Z,16.00
2019-04-01T11:59:13.649Z,15.67
2019-04-01T12:01:44.733Z,16.60
2019-04-01T12:04:15.592Z,15.67
2019-04-01T12:06:46.585Z,16.17
2019-04-01T12:09:17.584Z,15.73
2019-04-01T12:11:48.443Z,15.23
2019-04-01T12:14:19.355Z,15.73
2019-04-01T12:16:50.377Z,15.73
2019-04-01T12:19:21.230Z,14.50
2019-04-01T12:21:51.991Z,15.30
2019-04-01T12:24:23.423Z,15.83
2019-04-01T12:26:54.304Z,15.73
2019-04-01T12:29:26.351Z,15.07
2019-04-01T12:31:59.646Z,15.57
2019-04-01T12:34:29.971Z,15.57
2019-04-01T12:37:00.971Z,14.93
2019-04-01T12:39:32.262Z,15.03
2019-04-01T12:42:03.254Z,15.30
2019-04-01T12:44:34.027Z,15.43
2019-04-01T12:47:05.281Z,14.57
2019-04-01T12:49:36.377Z,15.40
2019-04-01T12:52:07.432Z,16.43
2019-04-01T12:54:38.436Z,14.17
2019-04-01T12:57:09.440Z,15.63
2019-04-01T12:59:40.215Z,13.77
2019-04-01T13:02:11.190Z,16.57
2019-04-01T13:04:42.001Z,15.83
2019-04-01T13:07:13.275Z,16.90
2019-04-01T13:09:45.103Z,16.87
2019-04-01T13:12:17.799Z,15.60
2019-04-01T13:14:48.608Z,15.73
2019-04-01T13:17:21.033Z,15.93
2019-04-01T13:19:52.141Z,14.57
2019-04-01T13:22:22.905Z,16.13
2019-04-01T13:24:53.697Z,15.67
2019-04-01T13:27:24.523Z,15.70
2019-04-01T13:29:55.362Z,15.40
2019-04-01T13:32:26.362Z,15.30
2019-04-01T13:34:57.135Z,15.20
2019-04-01T13:37:28.120Z,14.30
2019-04-01T13:40:02.243Z,14.27
2019-04-01T13:42:31.618Z,14.77
2019-04-01T13:45:02.532Z,15.40
2019-04-01T13:47:33.493Z,15.20
2019-04-01T13:50:04.580Z,15.13
2019-04-01T13:52:35.566Z,14.67
2019-04-01T13:55:06.787Z,14.17
2019-04-01T13:57:37.548Z,13.75
2019-04-01T14:00:08.892Z,13.55
2019-04-01T14:02:39.951Z,15.80
2019-04-01T14:05:10.794Z,14.00
2019-04-01T14:07:42.029Z,13.80
2019-04-01T14:10:13.191Z,14.50
2019-04-01T14:12:44.032Z,13.23
2019-04-01T14:15:15.094Z,13.57
2019-04-01T14:17:45.828Z,13.90
2019-04-01T14:20:16.903Z,13.90
2019-04-01T14:22:49.386Z,14.67
2019-04-01T14:25:20.255Z,15.10
2019-04-01T14:27:51.008Z,14.30
2019-04-01T14:30:21.865Z,14.90
2019-04-01T14:32:52.622Z,14.40
2019-04-01T14:35:23.924Z,13.40
2019-04-01T14:37:58.070Z,13.63
2019-04-01T14:40:28.051Z,14.40
2019-04-01T14:42:58.833Z,14.30
2019-04-01T14:45:29.906Z,13.57
2019-04-01T14:48:01.646Z,14.33
2019-04-01T14:50:32.766Z,14.73
2019-04-01T14:53:03.625Z,14.23
2019-04-01T14:55:34.814Z,13.67
2019-04-01T14:58:05.659Z,13.47
2019-04-01T15:00:37.077Z,14.00
2019-04-01T15:03:07.854Z,14.47
2019-04-01T15:05:38.827Z,14.47
2019-04-01T15:08:09.602Z,12.53
2019-04-01T15:10:41.149Z,14.10
2019-04-01T15:16:44.365Z,14.07
2019-04-01T15:19:15.456Z,13.23
2019-04-01T15:21:47.496Z,13.97
2019-04-01T15:24:18.536Z,13.70
2019-04-01T15:26:49.312Z,14.20
2019-04-01T15:29:20.364Z,13.83
2019-04-01T15:31:52.113Z,13.47
2019-04-01T15:34:23.416Z,12.73
2019-04-01T15:36:55.104Z,13.90
2019-04-01T15:39:26.308Z,13.23
2019-04-01T15:41:57.327Z,12.23
2019-04-01T15:44:29.363Z,13.07
2019-04-01T15:47:00.348Z,12.90
2019-04-01T15:49:31.351Z,13.13
2019-04-01T15:52:02.355Z,13.67
2019-04-01T15:54:33.295Z,13.10
2019-04-01T15:57:04.161Z,13.13
2019-04-01T15:59:35.369Z,33.33
2019-04-01T16:02:06.400Z,13.57
2019-04-01T16:04:37.572Z,12.70
2019-04-01T16:07:08.421Z,11.90
2019-04-01T16:09:39.743Z,13.00
2019-04-01T16:12:10.621Z,13.53
2019-04-01T16:14:41.864Z,13.97
2019-04-01T16:17:12.721Z,12.10
2019-04-01T16:19:43.531Z,13.93
2019-04-01T16:22:14.306Z,13.90
2019-04-01T16:24:45.347Z,12.10
2019-04-01T16:27:16.384Z,11.97
2019-04-01T16:29:47.446Z,14.60
2019-04-01T16:32:18.460Z,14.23
2019-04-01T16:34:49.576Z,16.27
2019-04-01T16:37:20.430Z,13.60
2019-04-01T16:39:54.373Z,14.77
2019-04-01T16:42:24.024Z,12.83
2019-04-01T16:44:54.781Z,14.67
2019-04-01T16:47:25.795Z,13.37
2019-04-01T16:49:56.851Z,13.17
2019-04-01T16:52:28.443Z,16.33
2019-04-01T16:55:01.876Z,12.97
2019-04-01T16:57:34.917Z,12.37
2019-04-01T17:00:07.666Z,12.40
2019-04-01T17:02:39.658Z,11.67
2019-04-01T17:05:11.920Z,11.37
2019-04-01T17:07:42.928Z,13.93
2019-04-01T17:11:02.188Z,12.90
2019-04-01T17:13:34.910Z,12.20
2019-04-01T17:16:05.987Z,13.90
2019-04-01T17:18:37.609Z,14.53
2019-04-01T17:21:08.684Z,13.50
2019-04-01T17:23:59.477Z,18.40
2019-04-01T17:27:16.870Z,17.03
2019-04-01T17:29:47.762Z,26.27
2019-04-01T17:32:31.335Z,26.40
2019-04-01T17:35:41.912Z,21.60
2019-04-01T17:41:57.916Z,21.97
2019-04-01T17:44:29.105Z,14.20
2019-04-01T17:47:21.085Z,22.83
2019-04-01T17:49:53.500Z,18.87
2019-04-01T17:52:25.367Z,24.37
2019-04-01T17:54:57.661Z,23.63
2019-04-01T17:57:29.073Z,14.93
2019-04-01T17:59:59.971Z,18.03
2019-04-01T18:02:31.044Z,19.57
2019-04-01T18:05:03.312Z,17.13
2019-04-01T18:07:35.308Z,16.57
2019-04-01T18:10:07.139Z,19.97
2019-04-01T18:12:38.213Z,15.83
2019-04-01T18:15:09.312Z,14.63
2019-04-01T18:17:41.314Z,15.70
2019-04-01T18:20:12.704Z,16.87
2019-04-01T18:22:43.484Z,15.50
2019-04-01T18:25:14.675Z,14.40
2019-04-01T18:27:45.447Z,15.30
2019-04-01T18:30:16.588Z,14.87
2019-04-01T18:32:47.523Z,16.00
2019-04-01T18:35:18.777Z,15.93
2019-04-01T18:37:49.859Z,14.43
2019-04-01T18:40:32.080Z,14.53
2019-04-01T18:42:53.693Z,13.67
2019-04-01T18:45:24.754Z,13.43
2019-04-01T18:47:55.917Z,14.10
2019-04-01T18:50:27.249Z,14.27
2019-04-01T18:52:58.252Z,13.63
2019-04-01T18:55:29.088Z,13.07
2019-04-01T18:57:59.876Z,14.97
2019-04-01T19:00:31.108Z,14.07
2019-04-01T19:03:02.255Z,14.53
2019-04-01T19:05:33.217Z,14.73
2019-04-01T19:08:04.690Z,14.53
2019-04-01T19:10:39.086Z,14.53
2019-04-01T19:13:12.382Z,14.10
2019-04-01T19:15:42.815Z,14.93
2019-04-01T19:18:14.695Z,14.47
2019-04-01T19:20:56.112Z,15.07
2019-04-01T19:23:18.384Z,13.83
2019-04-01T19:25:49.668Z,14.70
2019-04-01T19:28:20.520Z,14.20
2019-04-01T19:30:51.796Z,14.97
2019-04-01T19:33:22.776Z,14.53
2019-04-01T19:35:53.560Z,15.00
2019-04-01T19:38:25.201Z,14.83
2019-04-01T19:40:59.534Z,14.20
2019-04-01T19:43:29.444Z,14.37
2019-04-01T19:46:00.692Z,14.20
2019-04-01T19:48:32.281Z,14.23
2019-04-01T19:51:35.779Z,14.23
2019-04-01T19:54:33.549Z,14.03
2019-04-01T19:57:28.121Z,14.83
2019-04-01T20:03:28.852Z,14.53
2019-04-01T20:05:59.941Z,14.87
2019-04-01T20:08:30.844Z,14.37
2019-04-01T20:11:02.146Z,13.87
2019-04-01T20:13:33.467Z,13.70
2019-04-01T20:16:04.661Z,14.00
2019-04-01T20:18:36.216Z,14.63
2019-04-01T20:21:08.431Z,14.57
2019-04-01T20:23:39.196Z,14.23
2019-04-01T20:26:10.043Z,14.00
2019-04-01T20:28:42.083Z,13.60
2019-04-01T20:31:13.343Z,14.10
2019-04-01T20:33:44.351Z,14.27
2019-04-01T20:36:27.615Z,13.67
2019-04-01T20:38:48.123Z,14.43
2019-04-01T20:41:20.239Z,13.90
2019-04-01T20:43:52.350Z,13.63
2019-04-01T20:46:23.199Z,14.27
2019-04-01T20:48:54.011Z,14.63
2019-04-01T20:51:25.893Z,13.13
2019-04-01T20:53:57.593Z,15.57
2019-04-01T20:56:48.214Z,13.83
2019-04-01T20:59:28.672Z,14.00
2019-04-01T21:01:59.535Z,15.17
2019-04-01T21:04:30.549Z,15.40
2019-04-01T21:07:01.592Z,14.17
2019-04-01T21:09:32.419Z,14.27
2019-04-01T21:12:03.366Z,14.90
2019-04-01T21:14:34.836Z,15.03
2019-04-01T21:17:05.705Z,14.80
2019-04-01T21:19:57.458Z,14.67
2019-04-01T21:22:40.790Z,14.90
2019-04-01T21:25:51.555Z,14.93
2019-04-01T21:28:23.921Z,15.10
2019-04-01T21:30:54.874Z,15.80
2019-04-01T21:33:26.037Z,15.77
2019-04-01T21:35:57.015Z,14.60
2019-04-01T21:38:28.033Z,15.27
2019-04-01T21:40:58.796Z,14.77
2019-04-01T21:43:29.823Z,15.77
2019-04-01T21:46:01.608Z,15.23
2019-04-01T21:48:32.451Z,14.50
2019-04-01T21:51:04.126Z,14.93
2019-04-01T21:53:35.456Z,16.03
2019-04-01T21:56:06.507Z,15.07
2019-04-01T21:58:37.292Z,15.37
2019-04-01T22:04:24.328Z,15.30
2019-04-01T22:06:55.458Z,14.97
2019-04-01T22:09:26.463Z,15.90
2019-04-01T22:11:58.154Z,15.20
2019-04-01T22:14:30.149Z,16.47
2019-04-01T22:17:00.911Z,15.43
2019-04-01T22:19:31.965Z,15.93
2019-04-01T22:22:02.879Z,16.07
2019-04-01T22:24:33.663Z,15.57
2019-04-01T22:27:24.779Z,15.70
2019-04-01T22:30:06.336Z,16.47
2019-04-01T22:32:37.162Z,16.00
2019-04-01T22:35:08.662Z,16.47
2019-04-01T22:37:39.505Z,16.03
2019-04-01T22:40:10.350Z,15.50
2019-04-01T22:42:41.118Z,15.90
2019-04-01T22:45:31.261Z,15.90
2019-04-01T22:48:02.307Z,16.83
2019-04-01T22:50:33.663Z,16.83
2019-04-01T22:53:04.924Z,17.10
2019-04-01T22:55:36.935Z,17.27
2019-04-01T22:58:07.705Z,16.23
2019-04-01T23:00:38.555Z,16.17
2019-04-01T23:05:59.146Z,17.60
2019-04-01T23:08:49.196Z,17.70
2019-04-01T23:11:20.440Z,16.60
2019-04-01T23:13:51.424Z,16.50
2019-04-01T23:16:22.383Z,16.70
2019-04-01T23:18:53.277Z,17.23
2019-04-01T23:21:24.483Z,17.47
2019-04-01T23:23:56.190Z,17.53
2019-04-01T23:26:27.430Z,17.53
2019-04-01T23:28:58.583Z,17.67
2019-04-01T23:31:29.348Z,18.07
2019-04-01T23:34:02.168Z,16.80
2019-04-01T23:36:32.949Z,16.60
2019-04-01T23:42:07.529Z,17.77
2019-04-01T23:44:38.382Z,17.60
2019-04-01T23:47:09.355Z,17.00
2019-04-01T23:49:40.441Z,17.30
2019-04-01T23:52:11.806Z,17.93
2019-04-01T23:54:42.574Z,17.63
2019-04-01T23:57:13.405Z,17.03
2019-04-01T23:59:44.907Z,17.27
